createdAt,value
2018-04-20T00:00:46.733Z,102297.97
2018-04-20T00:03:14.329Z,102297.22
2018-04-20T00:05:42.041Z,102291.25
2018-04-20T00:08:09.663Z,102289.38
2018-04-20T00:10:37.273Z,102296.08
2018-04-20T00:13:04.887Z,102295.00
2018-04-20T00:15:32.502Z,102285.88
2018-04-20T00:18:00.079Z,102289.26
2018-04-20T00:20:27.694Z,102286.83
2018-04-20T00:22:55.278Z,102286.21
2018-04-20T00:25:22.886Z,102279.19
2018-04-20T00:27:50.474Z,102279.67
2018-04-20T00:30:18.058Z,102273.90
2018-04-20T00:32:45.685Z,102269.93
2018-04-20T00:35:13.265Z,102263.50
2018-04-20T00:37:40.852Z,102266.42
2018-04-20T00:40:08.432Z,102267.83
2018-04-20T00:42:36.054Z,102265.93
2018-04-20T00:45:03.639Z,102259.70
2018-04-20T00:47:31.254Z,102253.39
2018-04-20T00:49:58.833Z,102258.28
2018-04-20T00:52:26.413Z,102251.63
2018-04-20T00:54:54.027Z,102254.94
2018-04-20T00:57:21.618Z,102255.49
2018-04-20T00:59:49.246Z,102252.57
2018-04-20T01:02:16.909Z,102251.78
2018-04-20T01:04:44.497Z,102247.48
2018-04-20T01:07:12.078Z,102245.28
2018-04-20T01:09:39.693Z,102241.88
2018-04-20T01:12:07.282Z,102246.59
2018-04-20T01:14:34.868Z,102243.05
2018-04-20T01:17:02.484Z,102229.21
2018-04-20T01:19:30.070Z,102234.79
2018-04-20T01:21:57.663Z,102230.85
2018-04-20T01:24:25.244Z,102226.81
2018-04-20T01:26:53.463Z,102227.44
2018-04-20T01:29:21.043Z,102222.68
2018-04-20T01:31:48.658Z,102219.53
2018-04-20T01:34:16.870Z,102223.17
2018-04-20T01:36:44.461Z,102217.17
2018-04-20T01:39:12.042Z,102215.39
2018-04-20T01:41:39.726Z,102218.94
2018-04-20T01:44:07.381Z,102220.48
2018-04-20T01:46:34.971Z,102221.50
2018-04-20T01:49:02.554Z,102227.27
2018-04-20T01:51:30.143Z,102217.37
2018-04-20T01:53:57.753Z,102214.88
2018-04-20T01:56:25.388Z,102218.88
2018-04-20T01:58:52.978Z,102217.95
2018-04-20T02:01:20.569Z,102216.67
2018-04-20T02:03:48.172Z,102210.58
2018-04-20T02:06:15.765Z,102213.98
2018-04-20T02:08:43.402Z,102209.49
2018-04-20T02:11:11.011Z,102205.27
2018-04-20T02:13:38.622Z,102201.72
2018-04-20T02:16:06.215Z,102202.77
2018-04-20T02:18:33.853Z,102201.39
2018-04-20T02:21:01.435Z,102201.72
2018-04-20T02:23:29.070Z,102199.55
2018-04-20T02:25:56.665Z,102194.83
2018-04-20T02:28:24.250Z,102193.12
2018-04-20T02:30:51.831Z,102191.28
2018-04-20T02:33:19.419Z,102194.04
2018-04-20T02:35:47.003Z,102194.96
2018-04-20T02:38:14.589Z,102189.22
2018-04-20T02:40:42.173Z,102190.00
2018-04-20T02:43:09.763Z,102184.23
2018-04-20T02:45:37.353Z,102185.22
2018-04-20T02:48:04.951Z,102183.83
2018-04-20T02:50:32.530Z,102186.59
2018-04-20T02:53:00.138Z,102177.47
2018-04-20T02:55:27.722Z,102179.99
2018-04-20T02:57:55.307Z,102182.13
2018-04-20T03:00:22.889Z,102185.84
2018-04-20T03:02:50.472Z,102180.05
2018-04-20T03:05:18.054Z,102184.38
2018-04-20T03:07:45.642Z,102175.19
2018-04-20T03:10:13.226Z,102177.12
2018-04-20T03:12:40.815Z,102179.37
2018-04-20T03:15:08.397Z,102181.83
2018-04-20T03:17:35.978Z,102178.00
2018-04-20T03:20:03.560Z,102181.67
2018-04-20T03:22:31.138Z,102177.67
2018-04-20T03:24:58.735Z,102177.51
2018-04-20T03:27:26.318Z,102181.67
2018-04-20T03:29:53.902Z,102181.89
2018-04-20T03:32:21.590Z,102184.41
2018-04-20T03:34:49.213Z,102172.56
2018-04-20T03:37:16.794Z,102183.41
2018-04-20T03:39:44.481Z,102182.93
2018-04-20T03:42:12.106Z,102177.21
2018-04-20T03:44:39.701Z,102176.11
2018-04-20T03:47:07.285Z,102176.34
2018-04-20T03:49:34.872Z,102177.36
2018-04-20T03:52:02.456Z,102174.94
2018-04-20T03:54:30.069Z,102172.39
2018-04-20T03:56:57.658Z,102174.48
2018-04-20T03:59:25.250Z,102179.31
2018-04-20T04:01:52.833Z,102170.20
2018-04-20T04:04:20.505Z,102174.08
2018-04-20T04:06:48.153Z,102174.89
2018-04-20T04:09:15.744Z,102177.30
2018-04-20T04:11:43.329Z,102176.45
2018-04-20T04:14:10.973Z,102172.37
2018-04-20T04:16:50.337Z,102169.05
2018-04-20T04:19:29.834Z,102178.95
2018-04-20T04:22:09.357Z,102174.16
2018-04-20T04:24:49.926Z,102179.59
2018-04-20T04:30:18.418Z,102179.22
2018-04-20T04:32:46.042Z,102181.20
2018-04-20T04:35:13.630Z,102179.84
2018-04-20T04:37:41.248Z,102189.16
2018-04-20T04:40:08.850Z,102184.12
2018-04-20T04:42:36.462Z,102180.75
2018-04-20T04:45:04.055Z,102183.67
2018-04-20T04:47:31.641Z,102187.50
2018-04-20T04:49:59.257Z,102186.86
2018-04-20T04:52:26.870Z,102190.52
2018-04-20T04:54:54.457Z,102199.02
2018-04-20T04:57:22.046Z,102191.16
2018-04-20T04:59:49.633Z,102199.39
2018-04-20T05:02:17.223Z,102194.20
2018-04-20T05:04:44.810Z,102198.68
2018-04-20T05:07:13.174Z,102195.36
2018-04-20T05:09:40.762Z,102189.61
2018-04-20T05:12:08.399Z,102187.20
2018-04-20T05:14:35.982Z,102188.85
2018-04-20T05:17:03.565Z,102193.83
2018-04-20T05:19:31.149Z,102189.30
2018-04-20T05:21:58.733Z,102190.39
2018-04-20T05:24:26.331Z,102191.73
2018-04-20T05:26:53.913Z,102186.14
2018-04-20T05:29:21.557Z,102186.03
2018-04-20T05:31:49.174Z,102184.78
2018-04-20T05:34:16.757Z,102179.41
2018-04-20T05:36:44.374Z,102179.13
2018-04-20T05:39:11.967Z,102182.34
2018-04-20T05:41:39.582Z,102179.30
2018-04-20T05:44:07.170Z,102174.11
2018-04-20T05:46:34.754Z,102172.23
2018-04-20T05:49:02.340Z,102173.15
2018-04-20T05:51:29.930Z,102172.22
2018-04-20T05:53:57.516Z,102171.66
2018-04-20T05:56:25.106Z,102174.11
2018-04-20T05:58:52.729Z,102174.64
2018-04-20T06:01:20.792Z,102171.30
2018-04-20T06:03:48.456Z,102168.91
2018-04-20T06:06:16.066Z,102164.36
2018-04-20T06:08:43.698Z,102165.66
2018-04-20T06:11:12.099Z,102163.02
2018-04-20T06:13:39.689Z,102163.41
2018-04-20T06:16:07.271Z,102159.42
2018-04-20T06:18:34.854Z,102166.01
2018-04-20T06:21:02.481Z,102158.61
2018-04-20T06:23:30.074Z,102164.84
2018-04-20T06:25:57.658Z,102151.03
2018-04-20T06:28:25.385Z,102152.03
2018-04-20T06:30:52.971Z,102149.61
2018-04-20T06:33:20.548Z,102148.08
2018-04-20T06:35:48.228Z,102143.73
2018-04-20T06:38:15.806Z,102142.19
2018-04-20T06:40:43.985Z,102146.77
2018-04-20T06:43:11.926Z,102146.34
2018-04-20T06:45:39.557Z,102132.31
2018-04-20T06:48:07.186Z,102139.02
2018-04-20T06:50:34.774Z,102140.22
2018-04-20T06:53:02.365Z,102137.11
2018-04-20T06:55:30.075Z,102131.44
2018-04-20T06:57:57.662Z,102132.50
2018-04-20T07:00:25.292Z,102134.83
2018-04-20T07:02:52.873Z,102132.59
2018-04-20T07:05:20.499Z,102138.25
2018-04-20T07:07:48.085Z,102132.06
2018-04-20T07:10:15.666Z,102133.45
2018-04-20T07:12:43.246Z,102128.20
2018-04-20T07:15:10.826Z,102129.76
2018-04-20T07:17:38.439Z,102125.16
2018-04-20T07:20:06.058Z,102119.97
2018-04-20T07:22:33.664Z,102122.06
2018-04-20T07:25:01.251Z,102119.89
2018-04-20T07:27:28.956Z,102120.45
2018-04-20T07:29:56.579Z,102119.99
2018-04-20T07:32:24.163Z,102117.20
2018-04-20T07:34:51.748Z,102112.56
2018-04-20T07:37:19.330Z,102113.11
2018-04-20T07:39:46.913Z,102112.45
2018-04-20T07:42:14.493Z,102108.03
2018-04-20T07:44:42.077Z,102107.34
2018-04-20T07:47:09.681Z,102103.62
2018-04-20T07:49:37.849Z,102101.77
2018-04-20T07:52:05.469Z,102095.25
2018-04-20T07:54:33.688Z,102090.89
2018-04-20T07:57:01.262Z,102093.64
2018-04-20T07:59:28.893Z,102085.34
2018-04-20T08:01:56.553Z,102083.38
2018-04-20T08:04:24.133Z,102078.80
2018-04-20T08:06:51.790Z,102087.73
2018-04-20T08:09:19.477Z,102084.35
2018-04-20T08:11:47.084Z,102075.89
2018-04-20T08:14:14.658Z,102074.14
2018-04-20T08:16:42.269Z,102074.95
2018-04-20T08:19:09.840Z,102071.44
2018-04-20T08:21:37.444Z,102073.91
2018-04-20T08:24:05.034Z,102068.25
2018-04-20T08:26:32.605Z,102069.23
2018-04-20T08:29:00.189Z,102067.63
2018-04-20T08:31:27.793Z,102066.97
2018-04-20T08:33:55.365Z,102060.75
2018-04-20T08:36:22.942Z,102063.84
2018-04-20T08:38:50.586Z,102061.34
2018-04-20T08:41:18.161Z,102056.96
2018-04-20T08:43:45.737Z,102055.52
2018-04-20T08:46:13.319Z,102055.33
2018-04-20T08:48:40.924Z,102052.37
2018-04-20T08:51:08.500Z,102052.47
2018-04-20T08:53:36.078Z,102054.95
2018-04-20T08:56:03.652Z,102042.26
2018-04-20T08:58:31.258Z,102045.38
2018-04-20T09:00:58.839Z,102037.70
2018-04-20T09:03:26.445Z,102040.61
2018-04-20T09:05:54.026Z,102037.40
2018-04-20T09:08:21.635Z,102032.59
2018-04-20T09:10:49.209Z,102032.91
2018-04-20T09:13:17.590Z,102030.17
2018-04-20T09:15:45.166Z,102026.75
2018-04-20T09:18:12.772Z,102024.85
2018-04-20T09:20:40.346Z,102022.94
2018-04-20T09:23:07.950Z,102019.78
2018-04-20T09:25:36.430Z,102016.66
2018-04-20T09:28:04.006Z,102016.83
2018-04-20T09:30:31.577Z,102009.46
2018-04-20T09:32:59.149Z,102005.22
2018-04-20T09:35:26.757Z,102000.17
2018-04-20T09:37:54.394Z,102000.34
2018-04-20T09:40:21.966Z,102000.14
2018-04-20T09:42:49.630Z,101995.76
2018-04-20T09:45:17.205Z,101988.04
2018-04-20T09:47:44.852Z,101983.97
2018-04-20T09:50:12.429Z,101982.03
2018-04-20T09:52:40.002Z,101977.73
2018-04-20T09:55:07.585Z,101977.91
2018-04-20T09:57:35.165Z,101978.00
2018-04-20T10:00:02.775Z,101974.48
2018-04-20T10:02:30.355Z,101982.82
2018-04-20T10:05:04.551Z,101974.78
2018-04-20T10:07:32.126Z,101971.80
2018-04-20T10:09:59.745Z,101964.41
2018-04-20T10:12:27.410Z,101953.42
2018-04-20T10:14:54.998Z,101958.22
2018-04-20T10:17:22.579Z,101954.04
2018-04-20T10:19:50.150Z,101944.38
2018-04-20T10:22:18.637Z,101952.63
2018-04-20T10:24:46.222Z,101942.73
2018-04-20T10:27:13.801Z,101941.70
2018-04-20T10:29:41.414Z,101944.80
2018-04-20T10:32:09.013Z,101942.50
2018-04-20T10:34:36.590Z,101938.13
2018-04-20T10:37:04.197Z,101935.16
2018-04-20T10:39:31.773Z,101925.90
2018-04-20T10:41:59.357Z,101922.81
2018-04-20T10:44:26.926Z,101926.81
2018-04-20T10:46:54.505Z,101921.95
2018-04-20T10:49:22.085Z,101918.86
2018-04-20T10:51:49.673Z,101914.80
2018-04-20T10:54:17.282Z,101904.70
2018-04-20T10:56:44.857Z,101906.94
2018-04-20T10:59:12.434Z,101899.34
2018-04-20T11:01:40.018Z,101896.06
2018-04-20T11:04:07.595Z,101895.03
2018-04-20T11:06:35.206Z,101893.87
2018-04-20T11:09:02.783Z,101892.27
2018-04-20T11:11:30.435Z,101888.44
2018-04-20T11:13:57.978Z,101887.71
2018-04-20T11:16:25.557Z,101883.15
2018-04-20T11:18:53.132Z,101882.15
2018-04-20T11:21:20.709Z,101879.52
2018-04-20T11:23:48.282Z,101884.05
2018-04-20T11:26:15.859Z,101875.03
2018-04-20T11:28:43.473Z,101875.59
2018-04-20T11:31:11.045Z,101872.09
2018-04-20T11:33:38.620Z,101873.31
2018-04-20T11:36:06.193Z,101868.39
2018-04-20T11:38:37.493Z,101862.52
2018-04-20T11:41:05.118Z,101854.31
2018-04-20T11:43:32.691Z,101856.95
2018-04-20T11:46:01.523Z,101861.89
2018-04-20T11:48:29.556Z,101851.77
2018-04-20T11:50:57.132Z,101860.41
2018-04-20T11:53:24.716Z,101851.11
2018-04-20T11:55:52.293Z,101846.91
2018-04-20T11:58:19.891Z,101845.66
2018-04-20T12:00:47.514Z,101838.69
2018-04-20T12:03:15.085Z,101839.61
2018-04-20T12:05:42.686Z,101836.75
2018-04-20T12:08:10.266Z,101833.09
2018-04-20T12:10:37.888Z,101840.63
2018-04-20T12:13:05.489Z,101825.97
2018-04-20T12:15:33.060Z,101820.56
2018-04-20T12:18:00.633Z,101821.19
2018-04-20T12:20:28.240Z,101814.74
2018-04-20T12:22:55.818Z,101806.98
2018-04-20T12:25:23.391Z,101803.89
2018-04-20T12:27:50.994Z,101805.24
2018-04-20T12:30:18.610Z,101803.71
2018-04-20T12:32:46.222Z,101797.95
2018-04-20T12:35:13.797Z,101793.14
2018-04-20T12:37:41.460Z,101791.47
2018-04-20T12:40:09.018Z,101790.81
2018-04-20T12:42:36.629Z,101787.96
2018-04-20T12:45:04.207Z,101780.50
2018-04-20T12:47:31.837Z,101776.04
2018-04-20T12:49:59.380Z,101773.33
2018-04-20T12:52:26.961Z,101771.14
2018-04-20T12:54:54.574Z,101765.67
2018-04-20T12:57:22.195Z,101768.36
2018-04-20T12:59:49.757Z,101761.84
2018-04-20T13:02:17.341Z,101757.80
2018-04-20T13:04:44.909Z,101752.41
2018-04-20T13:07:12.481Z,101753.90
2018-04-20T13:09:40.056Z,101745.59
2018-04-20T13:12:07.635Z,101735.54
2018-04-20T13:14:35.205Z,101733.70
2018-04-20T13:17:02.780Z,101723.42
2018-04-20T13:19:30.349Z,101727.78
2018-04-20T13:21:57.949Z,101721.66
2018-04-20T13:24:25.581Z,101719.48
2018-04-20T13:26:53.159Z,101714.50
2018-04-20T13:29:20.767Z,101708.16
2018-04-20T13:31:48.381Z,101710.34
2018-04-20T13:34:16.020Z,101706.80
2018-04-20T13:36:43.596Z,101699.91
2018-04-20T13:39:11.202Z,101692.64
2018-04-20T13:41:38.814Z,101695.53
2018-04-20T13:44:06.427Z,101690.16
2018-04-20T13:46:34.033Z,101689.33
2018-04-20T13:49:01.636Z,101686.94
2018-04-20T13:51:29.221Z,101683.20
2018-04-20T13:53:56.829Z,101680.81
2018-04-20T13:56:24.443Z,101675.11
2018-04-20T13:58:52.051Z,101676.48
2018-04-20T14:01:19.630Z,101675.23
2018-04-20T14:03:47.228Z,101667.22
2018-04-20T14:06:14.809Z,101661.00
2018-04-20T14:08:42.575Z,101664.65
2018-04-20T14:11:10.318Z,101656.57
2018-04-20T14:13:37.927Z,101658.55
2018-04-20T14:16:05.540Z,101648.39
2018-04-20T14:18:33.793Z,101639.22
2018-04-20T14:21:01.370Z,101638.17
2018-04-20T14:23:28.967Z,101638.05
2018-04-20T14:25:56.545Z,101632.93
2018-04-20T14:28:24.149Z,101631.36
2018-04-20T14:30:51.722Z,101628.85
2018-04-20T14:33:19.306Z,101628.85
2018-04-20T14:35:46.886Z,101621.83
2018-04-20T14:38:14.465Z,101620.18
2018-04-20T14:40:42.039Z,101620.34
2018-04-20T14:43:09.618Z,101616.17
2018-04-20T14:45:37.199Z,101613.84
2018-04-20T14:48:04.782Z,101613.59
2018-04-20T14:50:32.358Z,101613.59
2018-04-20T14:52:59.931Z,101614.19
2018-04-20T14:55:27.541Z,101608.92
2018-04-20T14:57:55.117Z,101604.61
2018-04-20T15:00:22.699Z,101596.55
2018-04-20T15:02:50.284Z,101594.45
2018-04-20T15:05:17.857Z,101593.59
2018-04-20T15:07:45.433Z,101588.08
2018-04-20T15:10:13.013Z,101592.80
2018-04-20T15:12:40.585Z,101582.86
2018-04-20T15:15:08.164Z,101583.92
2018-04-20T15:17:36.706Z,101586.19
2018-04-20T15:20:04.290Z,101582.39
2018-04-20T15:22:31.953Z,101574.39
2018-04-20T15:24:59.534Z,101581.36
2018-04-20T15:27:27.173Z,101564.16
2018-04-20T15:29:54.796Z,101562.67
2018-04-20T15:32:22.380Z,101562.99
2018-04-20T15:34:49.977Z,101554.24
2018-04-20T15:37:18.545Z,101553.73
2018-04-20T15:39:46.121Z,101557.95
2018-04-20T15:42:13.738Z,101552.54
2018-04-20T15:44:41.319Z,101548.93
2018-04-20T15:47:08.938Z,101551.81
2018-04-20T15:49:36.509Z,101540.39
2018-04-20T15:52:04.113Z,101541.61
2018-04-20T15:54:31.689Z,101529.20
2018-04-20T15:56:59.278Z,101529.27
2018-04-20T15:59:26.853Z,101529.63
2018-04-20T16:01:54.431Z,101520.74
2018-04-20T16:04:22.052Z,101521.76
2018-04-20T16:06:49.670Z,101517.40
2018-04-20T16:09:17.276Z,101513.78
2018-04-20T16:11:44.852Z,101514.06
2018-04-20T16:14:12.462Z,101512.62
2018-04-20T16:16:40.042Z,101506.82
2018-04-20T16:19:07.648Z,101507.66
2018-04-20T16:21:35.926Z,101509.37
2018-04-20T16:24:03.502Z,101503.98
2018-04-20T16:26:31.078Z,101489.42
2018-04-20T16:28:58.657Z,101494.06
2018-04-20T16:31:26.312Z,101485.69
2018-04-20T16:33:53.974Z,101478.95
2018-04-20T16:36:21.556Z,101475.80
2018-04-20T16:38:49.161Z,101461.92
2018-04-20T16:41:16.740Z,101462.94
2018-04-20T16:43:44.430Z,101460.13
2018-04-20T16:46:12.011Z,101462.53
2018-04-20T16:48:39.589Z,101457.64
2018-04-20T16:51:07.214Z,101451.08
2018-04-20T16:53:34.813Z,101450.55
2018-04-20T16:56:02.388Z,101447.69
2018-04-20T16:58:30.001Z,101454.00
2018-04-20T17:01:08.867Z,101452.09
2018-04-20T17:03:36.459Z,101447.64
2018-04-20T17:06:04.067Z,101446.38
2018-04-20T17:08:31.645Z,101451.30
2018-04-20T17:10:59.323Z,101438.52
2018-04-20T17:13:26.981Z,101440.34
2018-04-20T17:15:54.642Z,101443.57
2018-04-20T17:18:22.230Z,101440.13
2018-04-20T17:20:49.805Z,101437.58
2018-04-20T17:23:17.824Z,101437.69
2018-04-20T17:25:45.501Z,101434.83
2018-04-20T17:28:13.162Z,101432.75
2018-04-20T17:30:40.826Z,101431.89
2018-04-20T17:33:08.418Z,101429.22
2018-04-20T17:35:36.034Z,101435.02
2018-04-20T17:38:03.645Z,101424.20
2018-04-20T17:40:31.231Z,101421.79
2018-04-20T17:42:58.839Z,101425.34
2018-04-20T17:45:26.516Z,101428.06
2018-04-20T17:47:54.159Z,101425.11
2018-04-20T17:50:21.743Z,101429.18
2018-04-20T17:52:50.265Z,101421.70
2018-04-20T17:55:17.885Z,101419.75
2018-04-20T17:57:45.466Z,101420.05
2018-04-20T18:00:13.052Z,101417.75
2018-04-20T18:02:40.662Z,101417.44
2018-04-20T18:05:08.857Z,101419.09
2018-04-20T18:07:36.595Z,101419.91
2018-04-20T18:10:04.174Z,101420.52
2018-04-20T18:12:32.570Z,101418.61
2018-04-20T18:15:00.150Z,101413.29
2018-04-20T18:17:27.809Z,101410.45
2018-04-20T18:19:55.387Z,101413.75
2018-04-20T18:22:22.967Z,101414.55
2018-04-20T18:24:50.569Z,101418.77
2018-04-20T18:27:18.150Z,101423.37
2018-04-20T18:29:45.758Z,101418.11
2018-04-20T18:32:13.430Z,101425.16
2018-04-20T18:34:41.097Z,101423.91
2018-04-20T18:37:08.675Z,101425.53
2018-04-20T18:39:36.250Z,101429.32
2018-04-20T18:42:03.842Z,101428.97
2018-04-20T18:44:31.457Z,101422.86
2018-04-20T18:46:59.101Z,101428.94
2018-04-20T18:49:26.763Z,101431.06
2018-04-20T18:51:54.342Z,101419.87
2018-04-20T18:54:21.987Z,101420.42
2018-04-20T18:56:49.565Z,101428.08
2018-04-20T18:59:17.148Z,101423.23
2018-04-20T19:01:44.880Z,101421.94
2018-04-20T19:04:12.538Z,101425.66
2018-04-20T19:06:40.202Z,101431.38
2018-04-20T19:09:07.866Z,101431.91
2018-04-20T19:11:35.450Z,101420.58
2018-04-20T19:14:03.118Z,101434.81
2018-04-20T19:16:30.748Z,101423.87
2018-04-20T19:18:58.334Z,101423.98
2018-04-20T19:21:25.959Z,101425.94
2018-04-20T19:23:53.553Z,101428.62
2018-04-20T19:26:21.129Z,101427.47
2018-04-20T19:28:48.709Z,101424.78
2018-04-20T19:31:16.291Z,101421.55
2018-04-20T19:33:43.876Z,101430.32
2018-04-20T19:36:11.509Z,101421.09
2018-04-20T19:38:39.090Z,101421.22
2018-04-20T19:41:06.675Z,101429.63
2018-04-20T19:43:34.310Z,101422.91
2018-04-20T19:46:01.903Z,101425.14
2018-04-20T19:48:29.601Z,101426.30
2018-04-20T19:50:57.210Z,101423.45
2018-04-20T19:53:24.795Z,101419.08
2018-04-20T19:55:52.381Z,101413.36
2018-04-20T19:58:19.963Z,101418.95
2018-04-20T20:00:47.555Z,101420.17
2018-04-20T20:03:15.170Z,101420.04
2018-04-20T20:05:42.769Z,101417.09
2018-04-20T20:08:10.419Z,101416.44
2018-04-20T20:10:38.039Z,101412.13
2018-04-20T20:13:05.679Z,101419.20
2018-04-20T20:15:33.262Z,101415.14
2018-04-20T20:18:00.890Z,101415.12
2018-04-20T20:20:28.555Z,101414.14
2018-04-20T20:22:56.219Z,101412.50
2018-04-20T20:25:23.836Z,101412.49
2018-04-20T20:27:51.474Z,101406.95
2018-04-20T20:30:19.143Z,101405.91
2018-04-20T20:32:46.775Z,101398.95
2018-04-20T20:35:14.357Z,101409.39
2018-04-20T20:37:41.988Z,101409.77
2018-04-20T20:40:09.597Z,101403.76
2018-04-20T20:42:37.192Z,101407.69
2018-04-20T20:45:04.813Z,101402.77
2018-04-20T20:47:32.441Z,101403.82
2018-04-20T20:50:00.027Z,101405.83
2018-04-20T20:52:27.611Z,101405.83
2018-04-20T20:54:55.189Z,101402.56
2018-04-20T20:57:22.778Z,101407.92
2018-04-20T20:59:50.484Z,101398.15
2018-04-20T21:02:18.106Z,101397.35
2018-04-20T21:04:45.809Z,101392.87
2018-04-20T21:07:13.437Z,101396.59
2018-04-20T21:09:41.103Z,101397.48
2018-04-20T21:12:08.690Z,101395.08
2018-04-20T21:14:36.283Z,101394.86
2018-04-20T21:17:03.867Z,101386.42
2018-04-20T21:19:31.553Z,101394.30
2018-04-20T21:21:59.220Z,101390.67
2018-04-20T21:24:26.833Z,101389.14
2018-04-20T21:26:54.446Z,101388.14
2018-04-20T21:29:22.064Z,101388.27
2018-04-20T21:31:49.759Z,101389.70
2018-04-20T21:34:17.417Z,101387.00
2018-04-20T21:36:45.007Z,101383.63
2018-04-20T21:39:12.597Z,101379.77
2018-04-20T21:41:40.186Z,101386.51
2018-04-20T21:44:07.782Z,101379.31
2018-04-20T21:46:35.463Z,101370.28
2018-04-20T21:49:03.050Z,101376.02
2018-04-20T21:51:30.676Z,101367.32
2018-04-20T21:53:58.267Z,101371.41
2018-04-20T21:56:25.882Z,101371.20
2018-04-20T21:58:53.953Z,101377.10
2018-04-20T22:01:21.533Z,101372.75
2018-04-20T22:03:49.119Z,101371.86
2018-04-20T22:06:16.735Z,101367.89
2018-04-20T22:08:44.326Z,101370.81
2018-04-20T22:11:11.958Z,101363.26
2018-04-20T22:13:39.542Z,101364.06
2018-04-20T22:16:07.217Z,101363.33
2018-04-20T22:18:34.845Z,101362.27
2018-04-20T22:21:02.465Z,101364.41
2018-04-20T22:23:30.065Z,101366.35
2018-04-20T22:25:57.685Z,101365.17
2018-04-20T22:28:25.273Z,101365.67
2018-04-20T22:30:52.884Z,101366.64
2018-04-20T22:33:20.462Z,101372.11
2018-04-20T22:35:48.045Z,101361.77
2018-04-20T22:38:15.632Z,101365.59
2018-04-20T22:40:43.248Z,101369.35
2018-04-20T22:43:11.261Z,101366.92
2018-04-20T22:45:38.849Z,101372.14
2018-04-20T22:48:06.444Z,101376.72
2018-04-20T22:50:34.024Z,101373.35
2018-04-20T22:53:01.605Z,101380.32
2018-04-20T22:55:29.193Z,101391.38
2018-04-20T22:57:56.782Z,101406.61
2018-04-20T23:00:24.448Z,101401.74
2018-04-20T23:02:52.025Z,101391.46
2018-04-20T23:05:19.611Z,101396.33
2018-04-20T23:07:47.220Z,101388.31
2018-04-20T23:10:14.805Z,101388.70
2018-04-20T23:12:42.378Z,101387.59
2018-04-20T23:15:09.962Z,101383.78
2018-04-20T23:17:37.553Z,101377.36
2018-04-20T23:20:05.138Z,101381.31
2018-04-20T23:22:32.762Z,101376.77
2018-04-20T23:25:00.350Z,101372.85
2018-04-20T23:27:27.936Z,101373.78
2018-04-20T23:29:55.512Z,101375.45
2018-04-20T23:32:23.093Z,101375.02
2018-04-20T23:34:50.709Z,101371.11
2018-04-20T23:37:18.291Z,101365.48
2018-04-20T23:39:45.872Z,101370.76
2018-04-20T23:42:14.354Z,101361.41
2018-04-20T23:44:41.942Z,101364.55
2018-04-20T23:47:09.565Z,101357.23
2018-04-20T23:49:37.149Z,101365.11
2018-04-20T23:52:04.736Z,101359.19
2018-04-20T23:54:32.344Z,101349.77
2018-04-20T23:56:59.930Z,101352.69
2018-04-20T23:59:27.513Z,101355.61
